Time;durP1;ratioP1;P1;durP2;ratioP2;P2;SDS_P1;SDS_P2;PMS_P1;PMS_P2;Temp;Humidity;BMP_temperature;BMP_pressure;BME280_temperature;BME280_humidity;BME280_pressure;Samples;Min_cycle;Max_cycle;Signal;HPM_P1;HPM_P2
2023/07/18 00:00:25;;;;;;;6.22;5.72;;;;;;;22.91;100.00;-8626.66;5073799;28;20196;-65
2023/07/18 00:02:52;;;;;;;6.28;5.68;;;;;;;22.95;100.00;-9276.97;5073358;28;20185;-65
2023/07/18 00:05:21;;;;;;;5.90;5.40;;;;;;;22.84;100.00;-9600.91;5073346;28;20196;-64
2023/07/18 00:07:48;;;;;;;6.47;5.93;;;;;;;22.93;100.00;-10901.31;5073803;28;20230;-64
2023/07/18 00:10:19;;;;;;;11.60;5.75;;;;;;;22.80;100.00;-10899.78;5074020;28;20568;-63
2023/07/18 00:12:46;;;;;;;6.28;5.68;;;;;;;22.81;100.00;-10250.28;5073039;28;20189;-64
2023/07/18 00:15:13;;;;;;;6.00;5.40;;;;;;;22.90;100.00;-12199.84;5073549;28;20644;-64
2023/07/18 00:17:41;;;;;;;14.98;6.20;;;;;;;22.97;100.00;-12850.22;5073280;28;20612;-64
2023/07/18 00:20:17;;;;;;;6.78;6.00;;;;;;;22.82;100.00;-11549.47;5073796;28;20647;-64
2023/07/18 00:22:48;;;;;;;6.00;5.60;;;;;;;22.91;100.00;-11875.28;5072877;28;20185;-65
2023/07/18 00:25:19;;;;;;;8.48;6.40;;;;;;;22.90;100.00;-12199.91;5055092;28;20283;-64
2023/07/18 00:27:46;;;;;;;5.75;5.30;;;;;;;22.81;100.00;-11874.00;5072733;28;20209;-63
2023/07/18 00:30:14;;;;;;;5.95;5.45;;;;;;;22.78;100.00;-12522.84;5073337;28;20555;-64
2023/07/18 00:32:42;;;;;;;5.43;5.22;;;;;;;22.76;100.00;-12197.97;5073453;28;20626;-66
2023/07/18 00:35:11;;;;;;;5.88;5.60;;;;;;;22.86;100.00;-12199.28;5072347;28;20624;-63
2023/07/18 00:37:39;;;;;;;5.70;5.13;;;;;;;22.78;100.00;-10899.53;5072938;28;20185;-65
2023/07/18 00:40:10;;;;;;;8.02;5.28;;;;;;;22.72;100.00;-12197.41;5072761;28;20559;-64
2023/07/18 00:42:38;;;;;;;5.22;4.70;;;;;;;22.69;100.00;-13170.53;5072659;28;20228;-63
2023/07/18 00:45:07;;;;;;;5.88;5.43;;;;;;;22.70;100.00;-13495.13;5072518;28;20269;-63
2023/07/18 00:47:37;;;;;;;5.05;4.85;;;;;;;22.56;100.00;-12519.66;5072485;28;20209;-64
2023/07/18 00:50:07;;;;;;;5.75;5.35;;;;;;;22.53;100.00;-12519.31;5072712;28;20614;-64
2023/07/18 00:52:35;;;;;;;6.20;5.65;;;;;;;22.58;100.00;-13168.91;5072146;28;20338;-63
2023/07/18 00:55:03;;;;;;;5.53;5.30;;;;;;;22.62;100.00;-13169.44;5072332;28;20200;-63
2023/07/18 00:57:30;;;;;;;5.63;5.13;;;;;;;22.65;100.00;-13818.81;5072351;28;20189;-64
2023/07/18 00:59:59;;;;;;;9.38;5.68;;;;;;;22.67;100.00;-13494.75;5072142;28;20658;-63
2023/07/18 01:02:26;;;;;;;5.68;5.35;;;;;;;22.48;100.00;-13815.94;5072185;28;20185;-64
2023/07/18 01:04:52;;;;;;;6.40;5.80;;;;;;;22.58;100.00;-13817.66;5072104;28;20189;-63
2023/07/18 01:07:20;;;;;;;5.82;5.57;;;;;;;22.73;100.00;-13171.16;5072688;28;20302;-63
2023/07/18 01:09:47;;;;;;;7.03;5.38;;;;;;;22.72;100.00;-13171.00;5072243;28;20215;-63
2023/07/18 01:12:14;;;;;;;5.60;5.13;;;;;;;22.55;100.00;-13492.81;5072005;28;20189;-63
2023/07/18 01:14:41;;;;;;;5.85;5.55;;;;;;;22.57;100.00;-15438.69;5072094;28;20188;-64
2023/07/18 01:17:12;;;;;;;6.55;6.05;;;;;;;22.54;100.00;-18030.50;5072348;28;20216;-63
2023/07/18 01:19:39;;;;;;;5.50;5.13;;;;;;;22.58;100.00;-17707.47;5072040;28;20711;-63
2023/07/18 01:22:08;;;;;;;5.72;5.32;;;;;;;22.63;100.00;-17060.47;5072009;28;20188;-63
2023/07/18 01:24:35;;;;;;;6.10;5.70;;;;;;;22.51;100.00;-18029.69;5072056;28;20189;-64
2023/07/18 01:27:02;;;;;;;6.32;5.72;;;;;;;22.40;100.00;-18352.94;5071774;28;20185;-64
2023/07/18 01:29:30;;;;;;;6.60;5.93;;;;;;;22.33;100.00;-18349.38;5071657;28;20208;-63
2023/07/18 01:31:56;;;;;;;9.85;6.35;;;;;;;22.40;100.00;-18027.13;5072455;28;20247;-63
2023/07/18 01:34:24;;;;;;;8.15;6.60;;;;;;;22.45;100.00;-17704.41;5071956;28;20621;-64
2023/07/18 01:36:50;;;;;;;6.30;5.60;;;;;;;22.43;100.00;-17380.19;5071883;28;20192;-64
2023/07/18 01:39:19;;;;;;;6.10;5.80;;;;;;;22.59;100.00;-17059.59;5071839;28;20207;-66
2023/07/18 01:41:47;;;;;;;10.73;6.40;;;;;;;22.54;100.00;-16734.63;5071835;28;20192;-64
2023/07/18 01:44:14;;;;;;;9.18;6.07;;;;;;;22.41;100.00;-16731.88;5071854;28;20184;-64
2023/07/18 01:46:41;;;;;;;6.78;6.28;;;;;;;22.24;100.00;-17052.22;5070990;28;20191;-64
2023/07/18 01:49:08;;;;;;;7.10;5.75;;;;;;;22.16;100.00;-17050.50;5071289;28;20232;-64
2023/07/18 01:51:37;;;;;;;5.55;5.10;;;;;;;22.46;100.00;-17056.78;5071314;28;20702;-63
2023/07/18 01:54:05;;;;;;;6.32;5.95;;;;;;;22.18;100.00;-16727.09;5071862;28;20590;-65
2023/07/18 01:56:33;;;;;;;8.07;6.03;;;;;;;22.15;100.00;-16726.34;5071399;28;20180;-64
2023/07/18 01:59:00;;;;;;;11.13;6.22;;;;;;;22.21;100.00;-17051.59;5071545;28;20184;-64
2023/07/18 02:01:27;;;;;;;12.70;6.30;;;;;;;22.33;100.00;-17054.19;5071655;28;20215;-64
2023/07/18 02:03:53;;;;;;;6.80;5.63;;;;;;;22.37;100.00;-16730.91;5071653;28;20188;-65
2023/07/18 02:06:24;;;;;;;6.13;5.63;;;;;;;22.33;100.00;-16406.22;5071781;28;20192;-63
2023/07/18 02:08:51;;;;;;;5.97;5.57;;;;;;;22.36;100.00;-15758.75;5071327;28;20209;-64
2023/07/18 02:11:18;;;;;;;8.40;7.57;;;;;;;22.39;100.00;-16407.47;5071543;28;20333;-64
2023/07/18 02:13:46;;;;;;;8.68;7.97;;;;;;;22.32;100.00;-16729.97;5071346;28;20255;-64
2023/07/18 02:16:13;;;;;;;9.70;9.10;;;;;;;22.37;100.00;-16730.91;5071307;28;20191;-64
2023/07/18 02:18:41;;;;;;;9.65;7.65;;;;;;;22.37;100.00;-17054.84;5071655;28;20191;-65
2023/07/18 02:21:08;;;;;;;9.60;8.57;;;;;;;22.36;100.00;-17378.50;5071295;28;20250;-63
2023/07/18 02:23:35;;;;;;;9.18;8.45;;;;;;;22.28;100.00;-17700.78;5071095;28;20189;-64
2023/07/18 02:26:02;;;;;;;9.20;8.70;;;;;;;22.31;100.00;-17701.47;5071704;28;20570;-64
2023/07/18 02:28:28;;;;;;;12.20;9.00;;;;;;;22.29;100.00;-17701.00;5071128;28;20205;-63
2023/07/18 02:30:57;;;;;;;9.18;8.38;;;;;;;22.28;100.00;-17700.78;5071433;28;20196;-64
2023/07/18 02:33:24;;;;;;;8.70;8.13;;;;;;;22.11;100.00;-17696.78;5071449;28;20199;-64
2023/07/18 02:35:51;;;;;;;10.70;7.45;;;;;;;21.99;100.00;-17370.50;5071601;28;20635;-61
2023/07/18 02:38:18;;;;;;;9.02;7.65;;;;;;;22.07;100.00;-17696.00;5071244;28;20196;-64
2023/07/18 02:40:45;;;;;;;8.25;7.75;;;;;;;22.12;100.00;-17697.03;5071264;28;20600;-63
2023/07/18 02:43:12;;;;;;;8.88;8.15;;;;;;;22.12;100.00;-17697.03;5070937;28;20201;-64
2023/07/18 02:45:41;;;;;;;8.02;7.55;;;;;;;22.04;100.00;-17695.31;5070941;28;20193;-63
2023/07/18 02:48:09;;;;;;;7.80;7.13;;;;;;;21.94;100.00;-17369.41;5070780;28;20208;-64
2023/07/18 02:50:36;;;;;;;13.85;7.57;;;;;;;21.85;100.00;-18014.56;5070747;28;20598;-65
2023/07/18 02:53:03;;;;;;;8.07;6.88;;;;;;;21.82;100.00;-18337.50;5070744;28;20195;-64
2023/07/18 02:55:30;;;;;;;7.68;7.13;;;;;;;21.88;100.00;-18015.25;5070702;28;20196;-64
2023/07/18 02:57:57;;;;;;;12.55;11.10;;;;;;;21.81;100.00;-18013.75;5071638;28;20630;-65
2023/07/18 03:00:25;;;;;;;11.43;10.52;;;;;;;21.86;100.00;-18014.91;5074706;28;20196;-63
2023/07/18 03:02:53;;;;;;;10.55;7.60;;;;;;;21.65;100.00;-17686.44;5074923;28;20727;-65
2023/07/18 03:05:22;;;;;;;8.98;7.68;;;;;;;21.69;100.00;-17363.94;5074733;28;20192;-64
2023/07/18 03:07:50;;;;;;;9.05;7.93;;;;;;;21.54;100.00;-17037.16;5074884;28;20219;-64
2023/07/18 03:10:17;;;;;;;8.07;7.47;;;;;;;21.86;100.00;-16720.41;5074811;28;20242;-63
2023/07/18 03:12:44;;;;;;;8.55;8.15;;;;;;;21.84;100.00;-16396.31;5074712;28;20208;-63
2023/07/18 03:15:12;;;;;;;10.43;8.93;;;;;;;21.87;100.00;-16396.81;5074633;28;20558;-64
2023/07/18 03:17:39;;;;;;;9.63;8.52;;;;;;;21.85;100.00;-16720.22;5074645;28;20212;-64
2023/07/18 03:20:16;;;;;;;13.38;8.60;;;;;;;22.00;100.00;-17370.72;5074383;28;20196;-63
2023/07/18 03:22:45;;;;;;;11.93;9.02;;;;;;;22.40;100.00;-17703.38;5074129;28;20185;-63
2023/07/18 03:25:12;;;;;;;9.88;9.35;;;;;;;23.00;100.00;-14798.03;5074092;28;20611;-62
2023/07/18 03:27:39;;;;;;;9.57;9.07;;;;;;;23.64;100.00;-10584.38;5074149;28;20192;-63
2023/07/18 03:30:10;;;;;;;10.38;8.23;;;;;;;24.28;100.00;-1137.03;5074183;28;20251;-64
2023/07/18 03:32:37;;;;;;;8.57;8.00;;;;;;;24.90;100.00;11963.84;5074290;28;20192;-64
2023/07/18 03:35:06;;;;;;;11.30;7.35;;;;;;;24.94;100.00;21165.22;5074274;28;20279;-63
2023/07/18 03:37:33;;;;;;;8.07;7.05;;;;;;;24.67;100.00;21812.53;5074723;28;20181;-65
2023/07/18 03:40:02;;;;;;;8.20;7.47;;;;;;;24.55;100.00;23781.63;5074303;28;20200;-65
2023/07/18 03:42:29;;;;;;;8.85;7.00;;;;;;;24.51;100.00;25096.44;5073889;28;20287;-63
2023/07/18 03:44:56;;;;;;;9.60;7.10;;;;;;;24.45;100.00;29046.16;5073842;28;20193;-64
2023/07/18 03:47:23;;;;;;;13.07;7.65;;;;;;;24.32;100.00;28710.09;5074148;28;20219;-64
2023/07/18 03:49:50;;;;;;;7.55;6.95;;;;;;;24.42;100.00;28056.31;5073537;28;20212;-65
2023/07/18 03:52:18;;;;;;;14.75;6.88;;;;;;;24.68;100.00;27410.19;5073703;28;20598;-64
2023/07/18 03:54:45;;;;;;;7.68;7.07;;;;;;;24.89;100.00;36993.97;5074128;28;20188;-64
2023/07/18 03:57:14;;;;;;;9.38;6.28;;;;;;;24.98;100.00;41963.03;5074185;28;20238;-64
2023/07/18 03:59:40;;;;;;;14.30;7.18;;;;;;;25.15;100.00;42637.28;5073622;28;20188;-63
2023/07/18 04:02:07;;;;;;;6.57;6.15;;;;;;;25.58;100.00;50634.94;5073977;28;20181;-64
2023/07/18 04:04:34;;;;;;;9.55;6.30;;;;;;;26.12;100.00;68353.84;5073338;28;20195;-64
2023/07/18 04:07:02;;;;;;;7.03;6.53;;;;;;;26.49;100.00;94250.72;5073555;28;20201;-63
2023/07/18 04:09:29;;;;;;;6.72;6.03;;;;;;;26.80;100.00;127843.88;5072740;28;20204;-65
2023/07/18 04:11:56;;;;;;;7.82;7.20;;;;;;;27.17;100.00;152876.16;5074575;28;20667;-65
2023/07/18 04:14:24;;;;;;;7.35;6.80;;;;;;;27.21;100.00;152885.09;5073537;28;20647;-65
2023/07/18 04:16:52;;;;;;;10.20;7.10;;;;;;;27.04;100.00;152842.88;5073225;28;20368;-64
2023/07/18 04:19:19;;;;;;;8.82;7.57;;;;;;;26.72;100.00;152761.00;5073252;28;20181;-65
2023/07/18 04:21:46;;;;;;;9.50;7.40;;;;;;;26.47;100.00;133563.53;5073363;28;20620;-65
2023/07/18 04:24:13;;;;;;;7.80;6.95;;;;;;;26.10;100.00;115812.94;5073549;28;20227;-65
2023/07/18 04:26:39;;;;;;;6.43;5.78;;;;;;;26.53;100.00;126766.34;5072907;28;20189;-65
2023/07/18 04:29:07;;;;;;;15.40;6.53;;;;;;;26.85;100.00;146359.28;5072931;28;20308;-65
2023/07/18 04:31:35;;;;;;;12.80;7.22;;;;;;;27.10;100.00;152858.25;5073112;28;20711;-64
2023/07/18 04:34:02;;;;;;;14.43;6.68;;;;;;;27.19;100.00;152881.28;5073225;28;20250;-65
2023/07/18 04:36:29;;;;;;;7.65;6.55;;;;;;;27.20;100.00;152882.56;5073169;28;20661;-65
2023/07/18 04:38:56;;;;;;;5.70;5.30;;;;;;;27.19;100.00;152880.00;5072677;28;20185;-65
2023/07/18 04:41:23;;;;;;;10.00;6.45;;;;;;;27.07;100.00;152850.59;5073289;28;20185;-65
2023/07/18 04:43:49;;;;;;;8.02;5.45;;;;;;;27.43;100.00;152941.41;5072804;28;20619;-65
2023/07/18 04:46:16;;;;;;;4.35;4.15;;;;;;;27.81;100.00;153037.41;5072527;28;20185;-64
2023/07/18 04:48:45;;;;;;;4.50;4.10;;;;;;;27.96;100.00;153074.56;5072207;28;20235;-63
2023/07/18 04:51:11;;;;;;;5.00;4.70;;;;;;;28.12;100.00;153116.84;5072862;28;20233;-65
2023/07/18 04:53:38;;;;;;;4.78;4.38;;;;;;;28.52;100.00;153216.66;5072735;28;20176;-64
2023/07/18 04:56:07;;;;;;;8.00;4.43;;;;;;;28.68;100.00;153256.38;5072841;28;20189;-65
2023/07/18 04:58:34;;;;;;;4.78;4.47;;;;;;;28.85;100.00;153301.25;5055441;28;20195;-64
2023/07/18 05:01:02;;;;;;;4.38;4.07;;;;;;;28.86;100.00;153302.50;5072534;28;20539;-64
2023/07/18 05:03:29;;;;;;;8.77;3.88;;;;;;;29.04;100.00;153348.59;5072560;28;20622;-64
2023/07/18 05:05:58;;;;;;;3.90;3.47;;;;;;;28.84;100.00;153298.69;5072430;28;20196;-64
2023/07/18 05:08:26;;;;;;;3.65;3.40;;;;;;;28.99;100.00;153335.78;5072733;28;20185;-63
2023/07/18 05:11:01;;;;;;;3.83;3.65;;;;;;;29.03;100.00;153347.31;5072059;28;20275;-65
2023/07/18 05:13:28;;;;;;;4.05;3.75;;;;;;;29.06;100.00;153353.75;5072300;28;20188;-63
2023/07/18 05:15:55;;;;;;;5.18;4.22;;;;;;;28.99;100.00;153337.06;5054365;28;20208;-63
2023/07/18 05:18:21;;;;;;;4.75;4.45;;;;;;;29.12;100.00;153369.09;5072263;28;20287;-63
2023/07/18 05:20:48;;;;;;;3.67;3.45;;;;;;;28.99;100.00;153335.78;5072191;28;20659;-64
2023/07/18 05:23:16;;;;;;;3.65;3.35;;;;;;;29.05;100.00;153352.47;5071809;28;20276;-61
2023/07/18 05:25:43;;;;;;;4.18;3.67;;;;;;;29.06;100.00;153353.75;5072270;28;20180;-61
2023/07/18 05:28:10;;;;;;;4.28;3.30;;;;;;;28.98;100.00;153334.50;5071552;28;20193;-61
2023/07/18 05:30:37;;;;;;;3.75;3.55;;;;;;;29.21;100.00;153392.16;5071874;28;20208;-64
2023/07/18 05:33:04;;;;;;;3.70;3.50;;;;;;;29.26;100.00;153403.69;5071508;28;20196;-64
2023/07/18 05:35:31;;;;;;;7.70;3.83;;;;;;;29.07;100.00;153356.28;5071391;28;20192;-63
2023/07/18 05:37:58;;;;;;;8.20;4.03;;;;;;;28.99;100.00;153337.06;5071669;28;20218;-64
2023/07/18 05:40:26;;;;;;;3.90;3.72;;;;;;;29.19;100.00;153387.06;5071672;28;20235;-64
2023/07/18 05:42:53;;;;;;;3.47;3.25;;;;;;;28.92;100.00;153317.88;5071347;28;20199;-65
2023/07/18 05:45:20;;;;;;;5.15;3.70;;;;;;;29.05;100.00;153351.19;5071705;28;20572;-64
2023/07/18 05:47:50;;;;;;;3.85;3.58;;;;;;;29.00;100.00;153339.66;5071568;28;20540;-62
2023/07/18 05:50:17;;;;;;;3.67;3.40;;;;;;;29.45;100.00;153453.69;5071672;28;20243;-62
2023/07/18 05:52:44;;;;;;;5.32;3.95;;;;;;;29.81;100.00;153543.38;5071274;28;20207;-62
2023/07/18 05:55:13;;;;;;;6.15;3.75;;;;;;;29.92;100.00;153572.88;5071254;28;20195;-64
2023/07/18 05:57:41;;;;;;;3.85;3.70;;;;;;;30.02;100.00;153597.25;5071320;28;20195;-66
2023/07/18 06:00:11;;;;;;;3.53;3.38;;;;;;;30.07;100.00;153608.78;5071298;28;20185;-65
2023/07/18 06:02:38;;;;;;;3.95;3.42;;;;;;;30.03;100.00;153599.81;5071023;28;20184;-65
2023/07/18 06:05:07;;;;;;;6.72;3.38;;;;;;;30.35;100.00;153681.81;5071837;28;20188;-65
2023/07/18 06:07:34;;;;;;;3.83;3.63;;;;;;;30.30;100.00;153669.00;5071516;28;20196;-65
2023/07/18 06:10:01;;;;;;;3.70;3.60;;;;;;;29.93;100.00;153574.16;5071198;28;20283;-65
2023/07/18 06:12:28;;;;;;;3.50;3.22;;;;;;;29.75;100.00;153527.97;5071221;28;20189;-65
2023/07/18 06:14:56;;;;;;;5.47;3.83;;;;;;;29.68;100.00;153511.34;5071511;28;20612;-65
2023/07/18 06:17:23;;;;;;;6.93;4.47;;;;;;;30.54;100.00;153728.03;5071491;28;20189;-65
2023/07/18 06:19:50;;;;;;;5.50;4.18;;;;;;;31.22;100.00;153901.16;5070921;28;20254;-63
2023/07/18 06:22:21;;;;;;;5.95;4.38;;;;;;;31.83;100.00;154056.38;5071567;28;20188;-64
2023/07/18 06:24:48;;;;;;;4.40;4.00;;;;;;;31.75;100.00;154035.84;5071277;28;20526;-64
2023/07/18 06:27:15;;;;;;;4.72;4.28;;;;;;;31.18;100.00;153890.91;5071170;28;20193;-64
2023/07/18 06:29:41;;;;;;;5.05;4.13;;;;;;;31.45;100.00;153960.13;5070557;28;20254;-64
2023/07/18 06:32:10;;;;;;;6.85;4.32;;;;;;;31.61;100.00;153999.97;5070930;28;20184;-62
2023/07/18 06:34:40;;;;;;;3.70;3.50;;;;;;;31.91;100.00;154076.91;5074783;28;20195;-65
2023/07/18 06:37:08;;;;;;;3.45;3.35;;;;;;;31.86;100.00;154064.13;5075240;28;20195;-65
2023/07/18 06:39:46;;;;;;;4.35;3.65;;;;;;;31.77;100.00;154039.72;5075454;28;20235;-64
2023/07/18 06:42:13;;;;;;;10.60;3.75;;;;;;;30.86;100.00;153810.06;5075473;28;20298;-65
2023/07/18 06:44:40;;;;;;;5.40;3.22;;;;;;;31.07;100.00;153863.94;5062715;28;20743;-60
2023/07/18 06:47:10;;;;;;;3.53;3.35;;;;;;;31.86;100.00;154064.13;5055123;28;20205;-62
2023/07/18 06:49:37;;;;;;;3.63;3.33;;;;;;;32.28;100.00;154169.34;5055000;28;20327;-61
2023/07/18 06:52:05;;;;;;;3.70;3.58;;;;;;;32.30;100.00;154175.75;5069365;28;20224;-61
2023/07/18 06:54:32;;;;;;;3.47;3.28;;;;;;;32.79;100.00;154300.31;5074189;28;20207;-62
2023/07/18 06:57:00;;;;;;;5.22;3.42;;;;;;;33.26;97.30;154419.75;5074782;28;20192;-63
2023/07/18 06:59:27;;;;;;;14.45;13.05;;;;;;;32.92;99.64;154332.41;5075209;28;20220;-64
2023/07/18 07:01:56;;;;;;;3.42;3.25;;;;;;;32.33;100.00;154182.19;5074653;28;20640;-64
2023/07/18 07:04:25;;;;;;;4.43;4.07;;;;;;;31.29;100.00;153920.38;5074641;28;20724;-64
2023/07/18 07:06:52;;;;;;;3.90;3.60;;;;;;;31.77;100.00;154041.00;5074993;28;20676;-64
2023/07/18 07:09:19;;;;;;;3.70;3.40;;;;;;;31.48;100.00;153966.56;5074441;28;20185;-64
2023/07/18 07:11:46;;;;;;;4.20;3.90;;;;;;;30.93;100.00;153828.03;5072919;28;20189;-64
2023/07/18 07:14:13;;;;;;;3.20;2.92;;;;;;;30.74;100.00;153780.56;5074273;28;20188;-65
2023/07/18 07:16:40;;;;;;;3.58;3.47;;;;;;;31.03;100.00;153853.69;5073611;28;20200;-65
2023/07/18 07:19:07;;;;;;;3.85;3.65;;;;;;;31.19;100.00;153893.47;5074170;28;20201;-63
2023/07/18 07:21:36;;;;;;;3.67;3.47;;;;;;;30.92;100.00;153825.47;5074061;28;20600;-64
2023/07/18 07:24:03;;;;;;;3.70;3.60;;;;;;;30.86;100.00;153810.06;5073884;28;20196;-64
2023/07/18 07:26:33;;;;;;;3.75;3.65;;;;;;;30.88;100.00;153815.19;5074891;28;20208;-65
2023/07/18 07:28:59;;;;;;;3.92;3.42;;;;;;;30.60;100.00;153743.38;5073658;28;20189;-64
2023/07/18 07:31:26;;;;;;;5.57;3.00;;;;;;;30.04;100.00;153601.09;5074699;28;20571;-64
2023/07/18 07:33:54;;;;;;;3.42;3.22;;;;;;;30.39;100.00;153690.78;5073975;28;20180;-64
2023/07/18 07:36:22;;;;;;;4.65;3.47;;;;;;;30.30;100.00;153667.69;5074037;28;20185;-65
2023/07/18 07:38:50;;;;;;;4.70;3.05;;;;;;;30.27;100.00;153661.31;5074092;28;20258;-65
2023/07/18 07:41:19;;;;;;;5.97;3.45;;;;;;;30.35;100.00;153681.81;5074417;28;20192;-64
2023/07/18 07:43:46;;;;;;;3.60;3.15;;;;;;;30.53;100.00;153725.44;5073617;28;20185;-64
2023/07/18 07:46:13;;;;;;;3.50;3.20;;;;;;;30.43;100.00;153699.78;5072650;28;20191;-64
2023/07/18 07:48:40;;;;;;;4.18;3.85;;;;;;;30.26;100.00;153657.44;5073634;28;20559;-65
2023/07/18 07:51:09;;;;;;;3.40;3.10;;;;;;;30.52;100.00;153724.16;5073669;28;20268;-64
2023/07/18 07:53:37;;;;;;;3.50;3.20;;;;;;;30.07;100.00;153610.06;5073701;28;20188;-65
2023/07/18 07:56:05;;;;;;;5.22;3.33;;;;;;;30.14;100.00;153628.00;5073749;28;20185;-64
2023/07/18 07:58:32;;;;;;;5.32;3.75;;;;;;;30.14;100.00;153626.69;5073404;28;20636;-63
2023/07/18 08:00:59;;;;;;;5.40;3.60;;;;;;;30.12;100.00;153622.88;5073823;28;20181;-65
2023/07/18 08:03:26;;;;;;;3.35;3.25;;;;;;;30.22;100.00;153648.47;5073827;28;20265;-64
2023/07/18 08:05:53;;;;;;;3.75;3.65;;;;;;;30.50;100.00;153717.78;5072914;28;20200;-65
2023/07/18 08:08:19;;;;;;;3.60;3.40;;;;;;;30.73;100.00;153776.72;5073989;28;20181;-65
2023/07/18 08:10:46;;;;;;;4.10;3.70;;;;;;;31.02;100.00;153851.13;5073195;28;20212;-65
2023/07/18 08:13:17;;;;;;;3.60;3.38;;;;;;;31.39;99.97;153943.47;5073901;28;20228;-64
2023/07/18 08:15:44;;;;;;;5.97;4.00;;;;;;;31.58;97.35;153993.53;5073533;28;20708;-66
2023/07/18 08:18:11;;;;;;;3.53;3.35;;;;;;;31.08;95.68;153866.53;5073650;28;20220;-66
2023/07/18 08:20:38;;;;;;;3.75;3.28;;;;;;;30.87;96.24;153812.63;5073427;28;20177;-66
2023/07/18 08:23:07;;;;;;;4.72;3.17;;;;;;;30.87;92.21;153811.34;5073216;28;20181;-66
2023/07/18 08:25:34;;;;;;;3.53;3.30;;;;;;;30.98;95.98;153839.56;5074854;28;20196;-63
2023/07/18 08:28:03;;;;;;;3.47;3.10;;;;;;;30.88;97.46;153815.19;5075136;28;20204;-67
2023/07/18 08:30:32;;;;;;;3.85;3.17;;;;;;;30.88;88.71;153813.91;5074699;28;20729;-65
2023/07/18 08:32:59;;;;;;;3.03;2.83;;;;;;;30.69;85.38;153767.75;5073852;28;20188;-66
2023/07/18 08:35:26;;;;;;;3.67;3.35;;;;;;;30.81;82.34;153797.22;5074173;28;20650;-67
2023/07/18 08:37:53;;;;;;;3.30;3.10;;;;;;;30.56;80.05;153733.13;5073502;28;20325;-65
2023/07/18 08:40:23;;;;;;;3.17;3.05;;;;;;;30.47;76.80;153710.09;5074180;28;20183;-65
2023/07/18 08:42:51;;;;;;;3.83;3.50;;;;;;;30.35;79.45;153680.53;5076217;28;20196;-64
2023/07/18 08:45:23;;;;;;;4.47;3.20;;;;;;;30.55;76.84;153730.59;5055567;28;20191;-65
2023/07/18 08:47:56;;;;;;;3.25;3.15;;;;;;;30.68;76.74;153763.94;5073364;28;20189;-66
2023/07/18 08:50:25;;;;;;;4.00;3.70;;;;;;;31.02;75.26;153851.13;5073319;28;20712;-65
2023/07/18 08:52:51;;;;;;;3.55;3.05;;;;;;;31.17;71.91;153889.63;5073235;28;20669;-66
2023/07/18 08:55:21;;;;;;;3.17;3.08;;;;;;;31.20;79.00;153896.00;5072688;28;20203;-65
2023/07/18 08:57:51;;;;;;;3.58;3.00;;;;;;;31.02;79.33;153851.13;5073639;28;20597;-64
2023/07/18 09:00:20;;;;;;;3.80;3.13;;;;;;;30.76;76.13;153784.44;5073408;28;20181;-65
2023/07/18 09:02:48;;;;;;;3.33;3.22;;;;;;;30.95;79.38;153831.84;5073678;28;20204;-64
2023/07/18 09:05:31;;;;;;;5.47;2.83;;;;;;;30.86;83.59;153810.06;5072644;28;20235;-65
2023/07/18 09:07:59;;;;;;;4.20;3.58;;;;;;;30.80;86.72;153794.69;5073235;28;20189;-66
2023/07/18 09:10:26;;;;;;;3.20;3.00;;;;;;;30.44;83.43;153702.31;5073232;28;20711;-65
2023/07/18 09:12:53;;;;;;;3.65;3.50;;;;;;;30.96;84.14;153834.41;5073822;28;20185;-63
2023/07/18 09:15:21;;;;;;;3.85;3.40;;;;;;;31.11;90.01;153874.22;5072193;28;20642;-67
2023/07/18 09:17:54;;;;;;;3.40;3.20;;;;;;;30.93;85.96;153828.03;5073480;28;20261;-66
2023/07/18 09:20:21;;;;;;;3.58;3.15;;;;;;;31.33;79.43;153928.06;5072803;28;20192;-67
2023/07/18 09:22:50;;;;;;;3.45;3.25;;;;;;;31.32;81.80;153926.78;5072899;28;20185;-67
2023/07/18 09:25:17;;;;;;;4.50;3.45;;;;;;;31.35;83.89;153933.22;5073126;28;20216;-67
2023/07/18 09:27:44;;;;;;;4.13;3.03;;;;;;;31.40;78.93;153946.06;5072166;28;20543;-65
2023/07/18 09:30:11;;;;;;;5.20;3.60;;;;;;;31.46;81.92;153962.72;5072289;28;20264;-66
2023/07/18 09:32:39;;;;;;;6.00;3.10;;;;;;;31.34;76.97;153930.66;5072038;28;20181;-65
2023/07/18 09:35:07;;;;;;;3.10;3.00;;;;;;;31.69;69.45;154020.50;5054750;28;20622;-68
2023/07/18 09:37:45;;;;;;;4.05;3.25;;;;;;;31.59;66.36;153994.81;5072073;28;20207;-65
2023/07/18 09:40:16;;;;;;;3.55;3.28;;;;;;;31.60;63.78;153998.69;5072343;28;20185;-66
2023/07/18 09:42:45;;;;;;;3.53;3.33;;;;;;;31.68;68.83;154017.91;5073080;28;20184;-65
2023/07/18 09:45:13;;;;;;;3.22;3.13;;;;;;;31.88;66.26;154069.22;5071653;28;20732;-62
2023/07/18 09:47:41;;;;;;;4.88;3.50;;;;;;;31.69;66.39;154020.50;5072045;28;20189;-64
2023/07/18 09:50:09;;;;;;;3.40;3.20;;;;;;;31.51;68.08;153975.53;5072629;28;20184;-65
2023/07/18 09:52:41;;;;;;;3.40;3.17;;;;;;;31.40;72.15;153946.06;5067857;28;20232;-64
2023/07/18 09:55:09;;;;;;;3.55;3.25;;;;;;;31.57;71.60;153989.72;5086854;28;20275;-67
2023/07/18 09:57:42;;;;;;;3.38;3.17;;;;;;;31.67;68.82;154015.34;5092259;28;20212;-66
2023/07/18 10:00:12;;;;;;;3.85;3.60;;;;;;;31.60;70.31;153998.69;5091870;28;20567;-65
2023/07/18 10:02:40;;;;;;;3.20;3.10;;;;;;;31.39;72.44;153944.75;5092765;28;20263;-67
2023/07/18 10:05:09;;;;;;;4.22;4.03;;;;;;;31.25;76.50;153910.13;5092528;28;20206;-67
2023/07/18 10:07:38;;;;;;;4.13;3.80;;;;;;;31.00;79.06;153846.03;5092318;28;20199;-66
2023/07/18 10:10:07;;;;;;;4.30;3.90;;;;;;;31.15;82.68;153884.47;5092451;28;20188;-67
2023/07/18 10:12:36;;;;;;;3.88;3.55;;;;;;;30.82;84.08;153799.78;5092904;28;20176;-66
2023/07/18 10:15:07;;;;;;;5.10;4.20;;;;;;;30.97;86.82;153838.28;5091796;28;20184;-63
2023/07/18 10:17:37;;;;;;;3.78;3.67;;;;;;;30.84;78.50;153804.94;5091243;28;20216;-61
2023/07/18 10:20:11;;;;;;;4.30;3.97;;;;;;;30.95;89.04;153831.84;5073961;28;20204;-64
2023/07/18 10:22:45;;;;;;;4.28;3.95;;;;;;;31.15;85.73;153884.47;5092693;28;20284;-66
2023/07/18 10:25:12;;;;;;;3.63;3.45;;;;;;;31.35;75.74;153933.22;5095142;28;20638;-67
2023/07/18 10:27:41;;;;;;;4.55;4.22;;;;;;;31.36;75.09;153935.78;5092507;28;20181;-66
2023/07/18 10:30:11;;;;;;;4.80;3.88;;;;;;;31.78;74.69;154043.59;5092323;28;20192;-67
2023/07/18 10:32:39;;;;;;;4.20;3.80;;;;;;;31.88;65.45;154069.22;5091800;28;20230;-66
2023/07/18 10:35:10;;;;;;;3.92;3.63;;;;;;;31.99;68.61;154097.47;5091834;28;20188;-66
2023/07/18 10:37:43;;;;;;;4.18;3.90;;;;;;;31.70;69.90;154023.03;5073310;28;20192;-62
2023/07/18 10:40:11;;;;;;;4.15;3.85;;;;;;;31.29;71.19;153920.38;5091453;28;20198;-62
2023/07/18 10:42:38;;;;;;;4.22;3.92;;;;;;;31.17;73.10;153889.63;5091859;28;20645;-65
2023/07/18 10:45:06;;;;;;;4.90;4.53;;;;;;;31.09;67.12;153867.81;5091301;28;20245;-67
2023/07/18 10:47:37;;;;;;;5.72;4.25;;;;;;;31.04;74.09;153856.28;5091044;28;20188;-64
2023/07/18 10:50:05;;;;;;;4.20;3.80;;;;;;;31.25;71.06;153908.84;5091652;28;20277;-62
2023/07/18 10:52:32;;;;;;;4.85;4.47;;;;;;;31.38;75.14;153942.19;5091198;28;20669;-60
2023/07/18 10:55:01;;;;;;;5.75;4.70;;;;;;;31.31;74.63;153922.97;5091544;28;20275;-62
2023/07/18 10:57:29;;;;;;;4.55;4.05;;;;;;;30.81;73.61;153797.22;5090544;28;20188;-61
2023/07/18 10:59:57;;;;;;;7.18;4.55;;;;;;;30.85;74.49;153807.53;5091022;28;20180;-60
2023/07/18 11:02:24;;;;;;;4.70;4.40;;;;;;;30.75;73.12;153783.16;5091338;28;20184;-61
2023/07/18 11:04:53;;;;;;;4.13;4.03;;;;;;;30.87;74.45;153812.63;5091104;28;20626;-61
2023/07/18 11:07:31;;;;;;;5.00;4.55;;;;;;;30.32;74.51;153674.13;5091360;28;20607;-61
2023/07/18 11:09:58;;;;;;;5.18;4.88;;;;;;;30.63;74.57;153751.09;5090652;28;20180;-61
2023/07/18 11:12:25;;;;;;;4.68;4.47;;;;;;;30.53;78.17;153725.44;5090969;28;20214;-61
2023/07/18 11:14:51;;;;;;;4.97;4.65;;;;;;;30.64;78.22;153754.91;5090596;28;20192;-61
2023/07/18 11:17:19;;;;;;;5.40;4.97;;;;;;;30.62;72.40;153748.53;5090876;28;20619;-60
2023/07/18 11:19:47;;;;;;;9.10;4.78;;;;;;;30.68;74.54;153765.16;5093028;28;20187;-63
2023/07/18 11:22:16;;;;;;;5.78;4.97;;;;;;;30.63;74.87;153751.09;5094163;28;20184;-59